Time;durP1;ratioP1;P1;durP2;ratioP2;P2;SDS_P1;SDS_P2;PMS_P1;PMS_P2;Temp;Humidity;BMP_temperature;BMP_pressure;BME280_temperature;BME280_humidity;BME280_pressure;Samples;Min_cycle;Max_cycle;Signal;HPM_P1;HPM_P2
2022/03/04 00:01:29;;;;;;;23.23;16.10;;;;;;;6.97;43.98;101840.16;5010418;28;20549;-63
2022/03/04 00:03:54;;;;;;;19.63;15.43;;;;;;;6.95;43.32;101842.25;5010394;28;20030;-63
2022/03/04 00:06:22;;;;;;;24.80;16.33;;;;;;;6.97;43.24;101844.84;5010799;28;20826;-63
2022/03/04 00:08:49;;;;;;;23.50;16.42;;;;;;;6.98;43.82;101841.84;5020226;28;20033;-64
2022/03/04 00:11:14;;;;;;;26.52;16.52;;;;;;;6.86;43.81;101846.25;5011390;28;20028;-64
2022/03/04 00:13:40;;;;;;;21.73;16.02;;;;;;;6.79;44.24;101856.41;5010146;28;20121;-63
2022/03/04 00:16:07;;;;;;;21.05;15.60;;;;;;;6.79;43.92;101846.22;5016409;28;20109;-64
2022/03/04 00:18:32;;;;;;;24.25;16.25;;;;;;;6.87;43.49;101856.22;5015909;28;20790;-63
2022/03/04 00:20:57;;;;;;;23.73;16.35;;;;;;;6.88;43.37;101855.19;5010602;28;20121;-63
2022/03/04 00:23:23;;;;;;;22.73;16.10;;;;;;;6.89;43.29;101859.66;5018815;28;20029;-63
2022/03/04 00:25:51;;;;;;;22.52;15.50;;;;;;;6.87;43.89;101859.00;5018154;28;20032;-63
2022/03/04 00:28:16;;;;;;;21.63;15.35;;;;;;;6.91;43.25;101860.28;5021704;28;20107;-64
2022/03/04 00:30:41;;;;;;;22.30;16.27;;;;;;;6.85;43.80;101855.59;5030829;28;20030;-63
2022/03/04 00:33:07;;;;;;;23.17;16.60;;;;;;;6.88;43.82;101857.97;5018770;28;20033;-63
2022/03/04 00:35:32;;;;;;;25.73;16.65;;;;;;;6.80;43.82;101855.38;5010541;28;20038;-64
2022/03/04 00:37:57;;;;;;;22.55;17.33;;;;;;;6.81;44.24;101865.34;5009385;28;20045;-63
2022/03/04 00:40:23;;;;;;;22.00;16.55;;;;;;;6.74;44.27;101862.53;5012287;28;20045;-64
2022/03/04 00:42:48;;;;;;;23.25;16.77;;;;;;;6.74;44.55;101864.44;5014280;28;20451;-64
2022/03/04 00:45:13;;;;;;;25.23;16.63;;;;;;;6.64;44.51;101879.47;5014870;28;20112;-63
2022/03/04 00:47:39;;;;;;;22.42;16.33;;;;;;;6.57;44.74;101873.03;5012898;28;20461;-63
2022/03/04 00:50:05;;;;;;;23.33;16.67;;;;;;;6.58;45.07;101868.38;5016836;28;20036;-63
2022/03/04 00:52:30;;;;;;;23.48;17.10;;;;;;;6.46;45.29;101868.09;5014086;28;20030;-63
2022/03/04 00:54:56;;;;;;;25.48;17.65;;;;;;;6.47;44.94;101868.94;5009998;28;20152;-63
2022/03/04 00:57:21;;;;;;;25.05;16.77;;;;;;;6.33;45.53;101863.34;5011860;28;20021;-62
2022/03/04 00:59:47;;;;;;;21.55;17.10;;;;;;;6.35;45.26;101871.38;5013207;28;20104;-63
2022/03/04 01:02:12;;;;;;;22.85;17.55;;;;;;;6.24;46.19;101874.69;5013728;28;20042;-63
2022/03/04 01:04:38;;;;;;;23.80;17.05;;;;;;;6.22;46.15;101869.38;5014395;28;20049;-63
2022/03/04 01:07:04;;;;;;;23.60;17.10;;;;;;;6.26;45.89;101875.34;5013099;28;20026;-63
2022/03/04 01:09:30;;;;;;;26.05;17.73;;;;;;;6.26;45.78;101876.22;5013331;28;20036;-63
2022/03/04 01:11:55;;;;;;;26.83;18.45;;;;;;;6.28;46.01;101882.34;5011973;28;20025;-64
2022/03/04 01:14:21;;;;;;;25.98;17.77;;;;;;;6.23;46.18;101881.25;5009931;28;20042;-63
2022/03/04 01:16:46;;;;;;;22.63;16.83;;;;;;;6.16;46.27;101875.69;5013005;28;20034;-63
2022/03/04 01:19:12;;;;;;;24.98;17.90;;;;;;;6.11;46.43;101872.69;5013543;28;20029;-63
2022/03/04 01:21:38;;;;;;;23.65;17.40;;;;;;;6.01;46.69;101866.66;5013810;28;20037;-63
2022/03/04 01:24:04;;;;;;;24.52;17.65;;;;;;;5.91;46.83;101866.97;5011836;28;20626;-64
2022/03/04 01:26:29;;;;;;;22.33;17.15;;;;;;;5.79;47.16;101874.91;5013822;28;20034;-63
2022/03/04 01:28:54;;;;;;;24.23;18.05;;;;;;;5.76;47.38;101874.44;5008890;28;20045;-64
2022/03/04 01:31:20;;;;;;;26.52;18.40;;;;;;;5.66;47.28;101883.88;5013614;28;20045;-64
2022/03/04 01:33:45;;;;;;;22.60;16.67;;;;;;;5.58;47.32;101878.50;5013038;28;20088;-64
2022/03/04 01:36:10;;;;;;;26.90;17.60;;;;;;;5.56;47.28;101874.22;5012322;28;20044;-64
2022/03/04 01:38:36;;;;;;;24.83;17.52;;;;;;;5.47;47.60;101873.50;5012956;28;20050;-63
2022/03/04 01:41:01;;;;;;;28.83;19.42;;;;;;;5.42;48.01;101873.22;5013951;28;20038;-64
2022/03/04 01:43:26;;;;;;;28.58;18.35;;;;;;;5.32;48.29;101858.91;5003662;28;20030;-64
2022/03/04 01:45:52;;;;;;;31.27;19.17;;;;;;;5.28;48.39;101865.84;5007677;28;20049;-64
2022/03/04 01:48:21;;;;;;;26.33;19.10;;;;;;;5.21;48.13;101853.91;5012877;28;20022;-64
2022/03/04 01:50:51;;;;;;;26.02;18.75;;;;;;;5.15;48.65;101861.91;5012344;28;20092;-64
2022/03/04 01:53:18;;;;;;;26.20;19.38;;;;;;;5.14;48.76;101870.34;5012825;28;20362;-64
2022/03/04 01:55:43;;;;;;;24.40;18.58;;;;;;;5.09;48.71;101859.91;5013072;28;20030;-64
2022/03/04 01:58:09;;;;;;;31.38;18.98;;;;;;;5.07;48.57;101859.25;5010451;28;20080;-64
2022/03/04 02:00:34;;;;;;;24.52;18.80;;;;;;;5.00;48.65;101863.81;5010157;28;20037;-64
2022/03/04 02:03:00;;;;;;;24.73;18.23;;;;;;;4.98;48.81;101865.91;5010963;28;20034;-64
2022/03/04 02:05:26;;;;;;;25.77;18.75;;;;;;;4.93;48.82;101873.88;5012725;28;20042;-64
2022/03/04 02:07:51;;;;;;;24.45;18.20;;;;;;;4.90;49.14;101868.75;5012199;28;20033;-64
2022/03/04 02:10:16;;;;;;;29.85;19.88;;;;;;;4.88;49.57;101868.97;5012477;28;20030;-64
2022/03/04 02:12:42;;;;;;;29.00;19.65;;;;;;;4.86;49.34;101878.44;5010712;28;20098;-64
2022/03/04 02:15:08;;;;;;;26.10;18.80;;;;;;;4.85;49.10;101882.25;4995077;28;20030;-64
2022/03/04 02:17:34;;;;;;;28.13;20.00;;;;;;;4.88;49.46;101879.13;5013031;28;20121;-64
2022/03/04 02:19:59;;;;;;;27.08;19.10;;;;;;;4.86;49.40;101872.94;5012584;28;20117;-64
2022/03/04 02:22:24;;;;;;;25.30;18.52;;;;;;;4.88;49.52;101876.38;5010814;28;20018;-64
2022/03/04 02:24:50;;;;;;;27.13;20.13;;;;;;;4.84;49.59;101867.63;5012117;28;20065;-64
2022/03/04 02:27:16;;;;;;;27.92;19.63;;;;;;;4.86;49.61;101864.69;5011732;28;20092;-64
2022/03/04 02:29:41;;;;;;;31.15;19.95;;;;;;;4.87;49.83;101863.63;5012354;28;20034;-64
2022/03/04 02:32:07;;;;;;;30.80;20.33;;;;;;;4.92;49.77;101862.03;5012425;28;20492;-64
2022/03/04 02:34:32;;;;;;;30.08;19.38;;;;;;;4.85;49.55;101858.34;5012958;28;20088;-64
2022/03/04 02:36:57;;;;;;;28.80;20.88;;;;;;;4.87;49.95;101864.50;5012468;28;20517;-64
2022/03/04 02:39:23;;;;;;;28.63;19.98;;;;;;;4.89;49.44;101850.56;5010748;28;20408;-64
2022/03/04 02:41:48;;;;;;;28.98;20.88;;;;;;;4.86;50.19;101850.94;5012521;28;20112;-64
2022/03/04 02:44:14;;;;;;;28.90;20.77;;;;;;;4.87;49.72;101856.25;5011728;28;20125;-64
2022/03/04 02:46:42;;;;;;;28.75;20.55;;;;;;;4.88;49.61;101849.69;5011447;28;20033;-64
2022/03/04 02:49:09;;;;;;;31.38;21.38;;;;;;;4.83;49.60;101857.66;4998412;28;20411;-64
2022/03/04 02:51:36;;;;;;;32.28;20.60;;;;;;;4.78;49.71;101851.88;5005303;28;20037;-64
2022/03/04 02:54:01;;;;;;;29.90;20.85;;;;;;;4.73;50.15;101848.00;5012207;28;20760;-64
2022/03/04 02:56:27;;;;;;;31.38;21.23;;;;;;;4.77;50.52;101850.19;5009877;28;20117;-64
2022/03/04 02:58:52;;;;;;;33.10;21.33;;;;;;;4.78;49.82;101848.28;5011770;28;20029;-64
2022/03/04 03:01:18;;;;;;;30.13;20.15;;;;;;;4.73;50.27;101840.59;5011484;28;20030;-64
2022/03/04 03:03:46;;;;;;;33.95;20.80;;;;;;;4.68;50.68;101854.94;5010959;28;20044;-64
2022/03/04 03:06:14;;;;;;;28.67;19.73;;;;;;;4.70;49.96;101851.97;5011846;28;20045;-64
2022/03/04 03:08:40;;;;;;;28.60;20.35;;;;;;;4.68;50.07;101848.59;5010486;28;20049;-64
2022/03/04 03:11:05;;;;;;;27.45;20.45;;;;;;;4.65;50.50;101848.94;5011795;28;20594;-64
2022/03/04 03:13:31;;;;;;;28.52;20.05;;;;;;;4.66;50.30;101853.41;5000593;28;20114;-64
2022/03/04 03:15:56;;;;;;;30.42;20.77;;;;;;;4.65;50.10;101848.94;5010877;28;20026;-64
2022/03/04 03:18:22;;;;;;;30.83;21.23;;;;;;;4.64;50.11;101847.25;5008589;28;20044;-63
2022/03/04 03:20:50;;;;;;;31.67;21.85;;;;;;;4.71;50.19;101847.31;5011357;28;20044;-63
2022/03/04 03:23:15;;;;;;;29.08;21.02;;;;;;;4.62;50.51;101844.69;5010849;28;20033;-63
2022/03/04 03:25:43;;;;;;;28.55;20.67;;;;;;;4.70;50.58;101845.63;4998533;28;20034;-63
2022/03/04 03:28:08;;;;;;;31.20;20.45;;;;;;;4.66;49.95;101843.25;5006040;28;20064;-63
2022/03/04 03:30:34;;;;;;;31.45;21.05;;;;;;;4.66;50.26;101853.41;5010955;28;20025;-63
2022/03/04 03:32:59;;;;;;;30.98;21.77;;;;;;;4.62;49.87;101850.19;5011722;28;20382;-63
2022/03/04 03:35:25;;;;;;;29.38;21.15;;;;;;;4.59;50.44;101850.53;5009969;28;20042;-63
2022/03/04 03:37:53;;;;;;;31.70;20.98;;;;;;;4.63;50.41;101851.88;5010644;28;20065;-63
2022/03/04 03:40:18;;;;;;;31.95;22.50;;;;;;;4.61;50.02;101862.22;5010799;28;20041;-63
2022/03/04 03:42:44;;;;;;;31.50;22.40;;;;;;;4.67;50.03;101860.59;5010313;28;20033;-63
2022/03/04 03:45:11;;;;;;;31.70;21.48;;;;;;;4.61;50.26;101861.38;5010182;28;20061;-63
2022/03/04 03:47:40;;;;;;;32.13;22.08;;;;;;;4.58;50.44;101859.84;5011294;28;20135;-64
2022/03/04 03:50:09;;;;;;;36.08;22.48;;;;;;;4.51;50.64;101850.63;5007716;28;20042;-63
2022/03/04 03:52:34;;;;;;;30.38;21.77;;;;;;;4.53;50.48;101854.06;5008293;28;20038;-62
2022/03/04 03:55:00;;;;;;;32.45;22.77;;;;;;;4.57;50.05;101855.41;5010774;28;20032;-63
2022/03/04 03:57:25;;;;;;;33.88;22.33;;;;;;;4.54;50.31;101853.03;5009805;28;20379;-63
2022/03/04 03:59:54;;;;;;;34.17;22.52;;;;;;;4.53;50.48;101859.56;5011509;28;20041;-63
2022/03/04 04:02:19;;;;;;;31.17;22.48;;;;;;;4.54;50.67;101853.03;5010341;28;20026;-63
2022/03/04 04:04:44;;;;;;;33.50;23.35;;;;;;;4.53;50.65;101856.81;5010836;28;20500;-63
2022/03/04 04:07:11;;;;;;;39.05;22.10;;;;;;;4.49;50.55;101861.00;5010499;28;20033;-63
2022/03/04 04:09:37;;;;;;;35.95;23.70;;;;;;;4.43;50.74;101875.47;5009807;28;20130;-63
2022/03/04 04:12:02;;;;;;;31.83;22.50;;;;;;;4.37;50.57;101870.75;5010497;28;20045;-63
2022/03/04 04:14:28;;;;;;;35.83;22.58;;;;;;;4.37;51.00;101868.84;5007885;28;20044;-63
2022/03/04 04:16:55;;;;;;;32.80;22.48;;;;;;;4.34;51.09;101860.97;5015378;28;20037;-63
2022/03/04 04:19:21;;;;;;;30.15;21.65;;;;;;;4.32;50.97;101875.94;5014332;28;20074;-64
2022/03/04 04:21:46;;;;;;;36.08;23.17;;;;;;;4.31;51.02;101875.06;5019105;28;20112;-64
2022/03/04 04:24:11;;;;;;;32.65;22.90;;;;;;;4.37;51.08;101873.50;5028914;28;20116;-64
2022/03/04 04:26:37;;;;;;;34.92;22.25;;;;;;;4.31;50.47;101872.31;5013298;28;20085;-63
2022/03/04 04:29:02;;;;;;;32.25;22.70;;;;;;;4.34;51.09;101877.47;5015053;28;20037;-64
2022/03/04 04:31:28;;;;;;;36.90;22.90;;;;;;;4.38;50.45;101878.78;5011779;28;20474;-64
2022/03/04 04:33:53;;;;;;;37.55;22.65;;;;;;;4.39;50.51;101877.75;5013510;28;20080;-64
2022/03/04 04:36:19;;;;;;;32.83;21.98;;;;;;;4.43;50.66;101883.72;5014604;28;20049;-64
2022/03/04 04:38:45;;;;;;;34.58;23.27;;;;;;;4.43;50.01;101879.06;5014371;28;20045;-64
2022/03/04 04:41:11;;;;;;;37.30;24.33;;;;;;;4.45;50.01;101881.66;4995441;28;20457;-64
2022/03/04 04:43:36;;;;;;;35.65;23.00;;;;;;;4.45;50.47;101892.66;4995068;28;20092;-64
2022/03/04 04:46:03;;;;;;;35.45;23.20;;;;;;;4.43;50.55;101886.47;4994375;28;20085;-64
2022/03/04 04:48:32;;;;;;;34.15;23.08;;;;;;;4.39;50.23;101887.88;4995151;28;20034;-64
2022/03/04 04:51:00;;;;;;;35.78;24.10;;;;;;;4.42;50.58;101891.13;4995652;28;20030;-64
2022/03/04 04:53:32;;;;;;;34.30;23.17;;;;;;;4.32;50.86;101893.31;5013665;28;20037;-64
2022/03/04 04:55:58;;;;;;;35.27;23.43;;;;;;;4.35;50.64;101892.91;4993523;28;20026;-64
2022/03/04 04:58:23;;;;;;;32.58;23.05;;;;;;;4.32;50.87;101887.81;4994481;28;20036;-64
2022/03/04 05:00:56;;;;;;;34.58;24.42;;;;;;;4.33;50.25;101883.16;5010940;28;20109;-64
2022/03/04 05:03:22;;;;;;;35.25;24.25;;;;;;;4.36;50.58;101888.25;5005205;28;20037;-64
2022/03/04 05:05:48;;;;;;;32.55;22.58;;;;;;;4.30;50.66;101886.28;5009187;28;20030;-65
2022/03/04 05:08:14;;;;;;;34.33;22.90;;;;;;;4.26;50.66;101883.03;5014340;28;20091;-63
2022/03/04 05:10:40;;;;;;;37.17;23.75;;;;;;;4.28;50.98;101880.09;4997091;28;20029;-63
2022/03/04 05:13:05;;;;;;;33.63;22.23;;;;;;;4.26;50.72;101876.69;4994425;28;20421;-63
2022/03/04 05:15:30;;;;;;;35.65;22.83;;;;;;;4.25;50.72;101884.09;5003212;28;20386;-63
2022/03/04 05:17:56;;;;;;;31.40;21.77;;;;;;;4.26;50.62;101877.53;4996501;28;20126;-63
2022/03/04 05:20:22;;;;;;;34.05;23.25;;;;;;;4.23;50.55;101879.81;4994195;28;20060;-63
2022/03/04 05:22:47;;;;;;;34.45;23.10;;;;;;;4.24;50.48;101878.75;4993367;28;20450;-63
2022/03/04 05:25:15;;;;;;;29.73;21.65;;;;;;;4.24;50.17;101876.84;4994964;28;20031;-63
2022/03/04 05:27:40;;;;;;;33.15;21.60;;;;;;;4.23;50.34;101877.91;4995041;28;20248;-63
2022/03/04 05:30:07;;;;;;;32.17;22.88;;;;;;;4.24;50.62;101881.50;4994054;28;20634;-63
2022/03/04 05:32:32;;;;;;;29.77;21.30;;;;;;;4.23;49.96;101888.91;4994987;28;20088;-63
2022/03/04 05:34:58;;;;;;;34.38;21.85;;;;;;;4.17;50.39;101892.41;4994138;28;20026;-63
2022/03/04 05:37:23;;;;;;;31.55;21.60;;;;;;;4.18;50.63;101875.72;4993084;28;20042;-63
2022/03/04 05:39:48;;;;;;;30.83;22.35;;;;;;;4.13;50.20;101886.44;5009427;28;20494;-63
2022/03/04 05:42:14;;;;;;;33.28;22.70;;;;;;;4.15;50.86;101888.97;5013209;28;20034;-63
2022/03/04 05:44:39;;;;;;;31.48;22.00;;;;;;;4.11;50.34;101891.25;5012327;28;20026;-63
2022/03/04 05:47:05;;;;;;;29.58;21.67;;;;;;;4.12;50.62;101903.06;5013490;28;20076;-63
2022/03/04 05:49:30;;;;;;;32.45;22.17;;;;;;;4.15;50.53;101902.72;5008519;28;20488;-63
2022/03/04 05:51:56;;;;;;;32.30;22.65;;;;;;;4.11;50.68;101902.22;5013741;28;20034;-63
2022/03/04 05:54:24;;;;;;;31.67;22.45;;;;;;;4.09;50.83;101900.72;5013226;28;20413;-64
2022/03/04 05:56:50;;;;;;;32.10;21.02;;;;;;;4.16;50.69;101904.41;5012385;28;20033;-63
2022/03/04 05:59:15;;;;;;;35.83;22.20;;;;;;;4.07;50.44;101909.13;5012660;28;20406;-63
2022/03/04 06:01:44;;;;;;;31.45;22.00;;;;;;;4.06;50.21;101907.44;5011736;28;20409;-63
2022/03/04 06:04:09;;;;;;;34.95;22.73;;;;;;;4.03;50.63;101913.28;4993302;28;20033;-63
2022/03/04 06:06:34;;;;;;;34.67;23.17;;;;;;;4.05;50.83;101922.22;5005618;28;20034;-63
2022/03/04 06:09:02;;;;;;;34.83;22.30;;;;;;;4.03;50.98;101918.78;5009201;28;20416;-63
2022/03/04 06:11:28;;;;;;;32.03;21.60;;;;;;;3.97;50.83;101921.41;5012831;28;20040;-63
2022/03/04 06:13:53;;;;;;;31.67;22.15;;;;;;;3.94;51.26;101926.25;5012671;28;20042;-63
2022/03/04 06:16:20;;;;;;;36.05;23.02;;;;;;;3.96;50.94;101933.44;5015668;28;20030;-63
2022/03/04 06:18:48;;;;;;;33.42;22.65;;;;;;;3.91;51.07;101925.75;5012382;28;20547;-63
2022/03/04 06:21:14;;;;;;;37.90;22.88;;;;;;;3.88;51.27;101926.97;5012935;28;20121;-63
2022/03/04 06:23:40;;;;;;;32.22;22.05;;;;;;;3.93;51.17;101929.19;5012058;28;20113;-63
2022/03/04 06:26:05;;;;;;;30.85;21.67;;;;;;;3.97;50.88;101933.28;5010465;28;20060;-62
2022/03/04 06:28:30;;;;;;;33.35;22.98;;;;;;;3.90;50.91;101935.88;5011340;28;20037;-60
2022/03/04 06:30:56;;;;;;;35.33;22.67;;;;;;;3.94;50.86;101939.13;4998076;28;20486;-61
2022/03/04 06:33:30;;;;;;;35.60;23.20;;;;;;;3.92;51.37;101930.19;4998710;28;20046;-61
2022/03/04 06:36:07;;;;;;;30.25;21.98;;;;;;;4.00;51.09;101937.53;5016056;28;20025;-62
2022/03/04 06:38:38;;;;;;;30.95;21.60;;;;;;;3.97;50.84;101933.28;5010024;28;20057;-61
2022/03/04 06:41:03;;;;;;;32.83;22.27;;;;;;;4.01;50.89;101937.34;5004965;28;20073;-61
2022/03/04 06:43:29;;;;;;;36.53;21.90;;;;;;;3.99;50.82;101942.16;5009643;28;20370;-61
2022/03/04 06:45:55;;;;;;;37.10;22.88;;;;;;;3.97;50.67;101944.25;5011255;28;20026;-61
2022/03/04 06:48:22;;;;;;;30.90;21.65;;;;;;;4.00;51.06;101940.28;5009823;28;20458;-62
2022/03/04 06:50:50;;;;;;;38.35;23.13;;;;;;;3.96;51.16;101949.91;4994791;28;20099;-62
2022/03/04 06:53:16;;;;;;;34.97;22.30;;;;;;;3.99;50.92;101947.66;5002770;28;20095;-60
2022/03/04 06:55:42;;;;;;;35.97;22.73;;;;;;;3.98;51.67;101951.44;4994958;28;20034;-62
2022/03/04 06:58:10;;;;;;;33.85;22.85;;;;;;;3.98;51.16;101959.69;5001677;28;20536;-62
2022/03/04 07:00:39;;;;;;;36.97;23.30;;;;;;;3.99;51.05;101958.66;4995444;28;20072;-62
2022/03/04 07:03:05;;;;;;;31.83;21.42;;;;;;;3.93;51.45;101960.25;5004831;28;20489;-63
2022/03/04 07:05:31;;;;;;;30.38;21.25;;;;;;;3.96;51.50;101966.41;5001464;28;20045;-63
2022/03/04 07:07:57;;;;;;;32.42;22.75;;;;;;;4.01;51.38;101972.19;5002056;28;20072;-64
2022/03/04 07:10:22;;;;;;;34.97;23.25;;;;;;;4.00;51.54;101975.97;5006795;28;20546;-63
2022/03/04 07:12:48;;;;;;;37.97;23.23;;;;;;;4.03;51.59;101979.22;5008804;28;20032;-60
2022/03/04 07:15:14;;;;;;;36.00;23.60;;;;;;;3.97;51.58;101979.97;5002938;28;20430;-63
2022/03/04 07:17:40;;;;;;;31.25;21.55;;;;;;;4.02;51.98;101985.75;4992589;28;20121;-63
2022/03/04 07:20:07;;;;;;;33.45;23.02;;;;;;;4.00;52.18;101998.81;4999655;28;20057;-63
2022/03/04 07:22:36;;;;;;;33.63;22.88;;;;;;;3.99;51.94;101997.09;5000935;28;20046;-62
2022/03/04 07:25:09;;;;;;;37.80;23.63;;;;;;;4.04;52.01;102002.91;4998686;28;20367;-62
2022/03/04 07:27:35;;;;;;;34.55;22.55;;;;;;;4.01;52.03;101995.06;5008339;28;20124;-62
2022/03/04 07:30:02;;;;;;;33.90;22.60;;;;;;;4.07;51.90;101997.06;5016487;28;20447;-63
2022/03/04 07:32:27;;;;;;;34.88;22.27;;;;;;;4.09;52.41;101997.75;5030866;28;20053;-63
2022/03/04 07:34:52;;;;;;;32.53;22.20;;;;;;;4.14;51.46;101997.19;5014804;28;20065;-63
2022/03/04 07:37:17;;;;;;;32.53;22.15;;;;;;;4.19;51.75;101995.59;5010074;28;20041;-62
2022/03/04 07:39:43;;;;;;;36.75;23.10;;;;;;;4.26;51.46;102000.38;4991336;28;20177;-63
2022/03/04 07:42:08;;;;;;;33.83;23.17;;;;;;;4.33;51.85;101993.09;5002361;28;20046;-63
2022/03/04 07:44:36;;;;;;;35.97;23.45;;;;;;;4.41;51.49;101996.63;5008657;28;20076;-63
2022/03/04 07:47:01;;;;;;;35.03;23.20;;;;;;;4.44;51.25;101984.38;5009898;28;20045;-63
2022/03/04 07:49:29;;;;;;;33.08;23.50;;;;;;;4.52;52.02;101992.59;5008516;28;20096;-63
2022/03/04 07:51:55;;;;;;;35.53;24.23;;;;;;;4.55;51.55;101994.94;5010127;28;20038;-62
2022/03/04 07:54:23;;;;;;;34.47;22.27;;;;;;;4.64;50.91;101985.59;5007743;28;20041;-63
2022/03/04 07:56:48;;;;;;;34.38;23.75;;;;;;;4.71;51.26;101990.34;5010148;28;20385;-62
2022/03/04 07:59:14;;;;;;;36.45;23.52;;;;;;;4.79;50.83;101990.25;5010460;28;20045;-63
2022/03/04 08:01:39;;;;;;;36.95;23.05;;;;;;;4.90;50.96;101995.31;5008395;28;20052;-62
2022/03/04 08:04:10;;;;;;;35.80;23.42;;;;;;;5.01;50.24;101997.59;5009711;28;20022;-62
2022/03/04 08:06:35;;;;;;;34.15;22.88;;;;;;;5.15;49.89;102001.41;5010324;28;20034;-62
2022/03/04 08:09:00;;;;;;;34.50;22.33;;;;;;;5.26;49.86;101991.81;5023441;28;20036;-62
2022/03/04 08:11:27;;;;;;;33.22;22.80;;;;;;;5.39;49.29;101994.75;5029421;28;20373;-62
2022/03/04 08:13:52;;;;;;;37.05;22.73;;;;;;;5.51;49.20;102001.50;5011017;28;20025;-63
2022/03/04 08:16:17;;;;;;;35.55;22.70;;;;;;;5.61;48.93;102010.28;5019910;28;20041;-63
2022/03/04 08:18:43;;;;;;;35.00;23.02;;;;;;;5.72;48.79;102006.19;5018985;28;20069;-63
2022/03/04 08:21:08;;;;;;;35.70;22.85;;;;;;;5.85;48.19;102002.75;5009836;28;20054;-63
2022/03/04 08:23:33;;;;;;;33.65;23.83;;;;;;;5.96;47.75;102005.03;5007111;28;20096;-63
2022/03/04 08:26:04;;;;;;;35.20;23.30;;;;;;;6.11;47.90;102011.34;5003831;28;20117;-63
2022/03/04 08:28:33;;;;;;;32.38;22.65;;;;;;;6.19;47.56;102006.78;5010688;28;20034;-64
2022/03/04 08:30:59;;;;;;;33.58;23.55;;;;;;;6.31;46.91;102016.22;5030327;28;20029;-64
2022/03/04 08:33:27;;;;;;;34.38;22.08;;;;;;;6.41;47.08;102010.41;5015449;28;20970;-64
2022/03/04 08:35:53;;;;;;;23.85;16.48;;;;;;;7.19;54.77;102013.97;5009785;28;20044;-64
2022/03/04 08:38:19;;;;;;;31.63;22.52;;;;;;;7.19;46.60;102012.09;5006410;28;20429;-64
2022/03/04 08:40:47;;;;;;;33.80;22.48;;;;;;;7.22;45.69;102010.81;5006309;28;20044;-64
2022/03/04 08:43:12;;;;;;;32.30;21.85;;;;;;;7.21;44.85;102014.66;5009642;28;20042;-64
2022/03/04 08:45:37;;;;;;;29.15;21.52;;;;;;;7.23;45.10;102018.91;5009376;28;20470;-64
2022/03/04 08:48:06;;;;;;;32.75;22.08;;;;;;;7.27;45.60;102013.81;5009433;28;20022;-64
2022/03/04 08:50:33;;;;;;;35.72;22.10;;;;;;;7.28;44.77;102023.84;5009811;28;20049;-64
2022/03/04 08:53:00;;;;;;;37.03;22.98;;;;;;;7.30;45.03;102016.19;5014416;28;20076;-64
2022/03/04 08:55:26;;;;;;;31.73;22.73;;;;;;;7.38;45.12;102027.06;5009349;28;20124;-64
2022/03/04 08:57:51;;;;;;;30.95;21.65;;;;;;;7.46;44.94;102026.88;5012611;28;20097;-64
2022/03/04 09:00:17;;;;;;;34.03;22.15;;;;;;;7.49;44.12;102026.50;5009464;28;20462;-64
2022/03/04 09:02:42;;;;;;;30.75;22.13;;;;;;;7.56;44.37;102023.78;5012214;28;20029;-64
2022/03/04 09:05:08;;;;;;;31.67;21.73;;;;;;;7.63;43.52;102028.28;5013264;28;20037;-64
2022/03/04 09:07:35;;;;;;;31.30;20.40;;;;;;;7.72;43.08;102028.09;5011778;28;20038;-64
2022/03/04 09:10:00;;;;;;;31.42;21.33;;;;;;;7.82;43.43;102023.91;4994232;28;20026;-64
2022/03/04 09:12:25;;;;;;;30.10;21.20;;;;;;;7.86;42.39;102024.34;5008663;28;20040;-64
2022/03/04 09:14:51;;;;;;;35.42;22.42;;;;;;;7.86;42.49;102032.63;5013042;28;20054;-64
2022/03/04 09:17:16;;;;;;;33.63;21.25;;;;;;;7.93;42.67;102019.66;5011158;28;20045;-64
2022/03/04 09:19:42;;;;;;;35.15;22.83;;;;;;;8.03;42.29;102025.66;5012545;28;20386;-64
2022/03/04 09:22:10;;;;;;;31.70;21.15;;;;;;;8.08;42.73;102025.91;5012275;28;20029;-64
2022/03/04 09:24:35;;;;;;;32.60;21.85;;;;;;;8.14;42.56;102018.69;5008173;28;20481;-63
2022/03/04 09:27:00;;;;;;;30.83;21.17;;;;;;;8.18;41.86;102022.75;5009209;28;20030;-61
2022/03/04 09:29:26;;;;;;;34.35;22.13;;;;;;;8.22;41.08;102014.88;5009793;28;20068;-63
2022/03/04 09:31:51;;;;;;;31.55;22.40;;;;;;;8.53;44.44;102008.81;5011477;28;20042;-63
2022/03/04 09:34:16;;;;;;;29.92;20.98;;;;;;;8.65;40.97;102011.78;5008069;28;20083;-63
2022/03/04 09:36:42;;;;;;;30.60;22.40;;;;;;;8.63;40.92;102011.13;5002935;28;20026;-63
2022/03/04 09:39:08;;;;;;;30.70;22.00;;;;;;;8.61;41.22;102003.06;5024184;28;20100;-63
2022/03/04 09:41:34;;;;;;;31.23;22.63;;;;;;;8.59;40.86;102003.25;5000126;28;20034;-64
2022/03/04 09:44:00;;;;;;;32.75;22.38;;;;;;;8.60;41.71;102004.09;5003743;28;20041;-64
2022/03/04 09:46:25;;;;;;;31.80;21.58;;;;;;;8.65;41.23;102003.50;5005243;28;20026;-63
2022/03/04 09:48:52;;;;;;;31.85;22.52;;;;;;;8.68;40.81;101997.50;5018723;28;20033;-63
2022/03/04 09:51:18;;;;;;;35.05;24.63;;;;;;;8.83;41.37;101998.16;5005588;28;20205;-64
2022/03/04 09:53:44;;;;;;;39.05;25.75;;;;;;;8.93;41.20;102006.88;4995777;28;20026;-64
2022/03/04 09:56:09;;;;;;;30.55;22.15;;;;;;;8.97;40.14;102007.31;4999503;28;20034;-63
2022/03/04 09:58:40;;;;;;;34.10;24.23;;;;;;;9.03;40.65;102000.91;4999784;28;20769;-63
2022/03/04 10:01:11;;;;;;;37.45;25.73;;;;;;;9.16;40.82;102000.06;5004109;28;20037;-64
2022/03/04 10:03:44;;;;;;;39.45;24.27;;;;;;;9.23;40.72;101995.31;5000562;28;20116;-64
2022/03/04 10:06:10;;;;;;;36.92;24.80;;;;;;;9.32;39.91;102007.91;5003646;28;20034;-64
2022/03/04 10:08:44;;;;;;;31.05;22.65;;;;;;;9.29;39.68;102000.84;5002246;28;20038;-64
2022/03/04 10:11:10;;;;;;;37.17;24.58;;;;;;;9.38;40.00;102003.38;4999219;28;20061;-65
2022/03/04 10:13:50;;;;;;;41.60;26.63;;;;;;;9.48;40.74;102003.81;5006222;28;20088;-64
2022/03/04 10:16:37;;;;;;;36.10;23.30;;;;;;;9.59;40.54;102001.22;5009102;28;20034;-64
2022/03/04 10:19:20;;;;;;;33.78;23.55;;;;;;;9.67;40.65;101999.22;5006970;28;20125;-64
2022/03/04 10:21:55;;;;;;;30.58;21.13;;;;;;;9.75;40.17;102004.56;5003556;28;20038;-64
2022/03/04 10:24:34;;;;;;;36.25;24.30;;;;;;;9.81;40.31;102015.59;5005678;28;20033;-64
2022/03/04 10:27:03;;;;;;;31.95;22.60;;;;;;;9.90;40.19;102016.19;5008028;28;20477;-66
2022/03/04 10:29:31;;;;;;;33.10;22.17;;;;;;;9.88;40.15;102020.28;5013981;28;20088;-63
2022/03/04 10:32:05;;;;;;;30.33;21.83;;;;;;;9.91;39.91;102019.84;5009856;28;20481;-65
2022/03/04 10:34:56;;;;;;;32.20;21.05;;;;;;;9.98;40.36;102021.53;5009594;28;20385;-64
2022/03/04 10:37:37;;;;;;;31.92;22.00;;;;;;;10.01;39.50;102020.22;5010482;28;20034;-62
2022/03/04 10:40:05;;;;;;;33.05;22.80;;;;;;;10.05;39.65;102013.16;5008532;28;20133;-63
2022/03/04 10:42:42;;;;;;;30.05;21.52;;;;;;;10.11;39.49;102009.50;5009942;28;20030;-63
2022/03/04 10:45:10;;;;;;;28.70;20.70;;;;;;;10.08;39.23;102008.00;5007541;28;20037;-63
2022/03/04 10:47:44;;;;;;;30.50;22.17;;;;;;;10.25;39.09;102011.13;5010010;28;20061;-63
2022/03/04 10:50:11;;;;;;;33.85;23.20;;;;;;;10.30;38.94;102008.56;5003273;28;20030;-62
2022/03/04 10:52:59;;;;;;;28.95;20.85;;;;;;;10.28;38.47;102004.31;5008673;28;20053;-60
2022/03/04 10:55:31;;;;;;;31.38;20.77;;;;;;;10.25;38.48;102002.81;5008605;28;20117;-63
2022/03/04 10:57:58;;;;;;;35.15;23.00;;;;;;;10.32;38.69;102002.78;5006492;28;20037;-62
2022/03/04 11:00:47;;;;;;;31.63;21.48;;;;;;;10.35;38.93;102005.13;4997616;28;20030;-62
2022/03/04 11:03:22;;;;;;;31.10;21.13;;;;;;;10.48;38.80;102002.25;5010152;28;20032;-63
2022/03/04 11:05:49;;;;;;;32.20;20.58;;;;;;;10.44;38.27;101995.44;5009933;28;20050;-62
2022/03/04 11:08:16;;;;;;;32.03;21.05;;;;;;;10.51;38.06;101996.25;5011150;28;20041;-62
2022/03/04 11:10:42;;;;;;;29.73;20.88;;;;;;;10.57;38.13;102000.91;5006023;28;20127;-62
2022/03/04 11:13:12;;;;;;;28.40;21.35;;;;;;;10.67;38.10;102003.16;5003707;28;20042;-62
2022/03/04 11:15:39;;;;;;;29.45;21.65;;;;;;;10.67;37.70;101997.63;5007885;28;20188;-62